Time;durP1;ratioP1;P1;durP2;ratioP2;P2;SDS_P1;SDS_P2;PMS_P1;PMS_P2;Temp;Humidity;BMP_temperature;BMP_pressure;BME280_temperature;BME280_humidity;BME280_pressure;Samples;Min_cycle;Max_cycle;Signal;HPM_P1;HPM_P2
2023/01/20 00:00:02;;;;;;;10.13;7.03;;;;;;;;;;5073872;28;20471;-84
2023/01/20 00:02:29;;;;;;;14.87;7.43;;;;;;;;;;5076755;28;20483;-83
2023/01/20 00:04:55;;;;;;;14.93;8.37;;;;;;;;;;5074048;28;20456;-83
2023/01/20 00:07:22;;;;;;;10.47;7.57;;;;;;;;;;5075587;28;20435;-85
2023/01/20 00:09:48;;;;;;;19.20;9.10;;;;;;;;;;5074493;28;20471;-83
2023/01/20 00:12:16;;;;;;;13.73;8.33;;;;;;;;;;5075884;28;20478;-83
2023/01/20 00:14:42;;;;;;;15.53;8.67;;;;;;;;;;5075003;28;20471;-83
2023/01/20 00:17:08;;;;;;;14.20;10.73;;;;;;;;;;5074530;28;20487;-83
2023/01/20 00:19:35;;;;;;;21.07;10.37;;;;;;;;;;5072574;28;20482;-83
2023/01/20 00:22:01;;;;;;;14.30;9.87;;;;;;;;;;5074887;28;20478;-83
2023/01/20 00:24:28;;;;;;;13.40;11.30;;;;;;;;;;5074011;28;20489;-84
2023/01/20 00:26:54;;;;;;;22.33;11.87;;;;;;;;;;5074770;28;20460;-83
2023/01/20 00:29:22;;;;;;;18.37;10.33;;;;;;;;;;5072365;28;20836;-83
2023/01/20 00:31:48;;;;;;;18.80;10.67;;;;;;;;;;5074144;28;20536;-83
2023/01/20 00:34:14;;;;;;;22.17;11.80;;;;;;;;;;5071315;28;21022;-83
2023/01/20 00:36:41;;;;;;;16.93;10.67;;;;;;;;;;5074336;28;20447;-83
2023/01/20 00:39:07;;;;;;;18.60;13.23;;;;;;;;;;5073442;28;20471;-83
2023/01/20 00:41:33;;;;;;;24.63;12.63;;;;;;;;;;5073313;28;20483;-83
2023/01/20 00:44:00;;;;;;;18.93;13.43;;;;;;;;;;5074542;28;20463;-83
2023/01/20 00:46:27;;;;;;;18.90;13.33;;;;;;;;;;5072339;28;20522;-83
2023/01/20 00:48:54;;;;;;;20.97;11.87;;;;;;;;;;5074996;28;20479;-83
2023/01/20 00:51:20;;;;;;;24.07;15.50;;;;;;;;;;5074194;28;20459;-84
2023/01/20 00:53:46;;;;;;;21.50;15.07;;;;;;;;;;5073790;28;20467;-83
2023/01/20 00:56:13;;;;;;;27.93;14.77;;;;;;;;;;5075382;28;20463;-83
2023/01/20 00:58:41;;;;;;;22.87;16.80;;;;;;;;;;5071621;28;21206;-83
2023/01/20 01:01:08;;;;;;;32.33;17.73;;;;;;;;;;5073727;28;20831;-83
2023/01/20 01:03:36;;;;;;;26.27;16.10;;;;;;;;;;5074476;28;21105;-83
2023/01/20 01:06:06;;;;;;;23.03;15.47;;;;;;;;;;5071794;28;20464;-83
2023/01/20 01:08:33;;;;;;;27.23;18.07;;;;;;;;;;5072494;28;20960;-84
2023/01/20 01:10:59;;;;;;;27.07;16.77;;;;;;;;;;5074831;28;20554;-83
2023/01/20 01:13:25;;;;;;;32.30;19.43;;;;;;;;;;5072811;28;20541;-84
2023/01/20 01:15:52;;;;;;;33.87;18.60;;;;;;;;;;5073527;28;20856;-83
2023/01/20 01:18:18;;;;;;;43.30;20.40;;;;;;;;;;5072496;28;20844;-84
2023/01/20 01:20:46;;;;;;;30.37;17.30;;;;;;;;;;5072111;28;21196;-83
2023/01/20 01:23:12;;;;;;;31.60;19.03;;;;;;;;;;5072100;28;20451;-83
2023/01/20 01:25:39;;;;;;;38.93;21.50;;;;;;;;;;5073784;28;20490;-84
2023/01/20 01:28:05;;;;;;;34.10;22.43;;;;;;;;;;5073471;28;21053;-83
2023/01/20 01:30:31;;;;;;;29.97;19.93;;;;;;;;;;5073164;28;20472;-83
2023/01/20 01:32:58;;;;;;;39.93;22.33;;;;;;;;;;5072621;28;20483;-83
2023/01/20 01:35:24;;;;;;;42.07;21.93;;;;;;;;;;5072737;28;20475;-83
2023/01/20 01:37:52;;;;;;;38.40;23.23;;;;;;;;;;5070144;28;20486;-83
2023/01/20 01:40:19;;;;;;;43.00;24.10;;;;;;;;;;5072805;28;20484;-84
2023/01/20 01:42:45;;;;;;;42.27;26.27;;;;;;;;;;5071981;28;20486;-83
2023/01/20 01:45:18;;;;;;;41.50;25.07;;;;;;;;;;5072627;28;20479;-83
2023/01/20 01:47:47;;;;;;;48.30;26.07;;;;;;;;;;5075478;28;20883;-84
2023/01/20 01:50:17;;;;;;;49.90;27.37;;;;;;;;;;5078544;28;20477;-83
2023/01/20 01:52:44;;;;;;;45.30;27.70;;;;;;;;;;5076530;28;20479;-83
2023/01/20 01:55:13;;;;;;;54.63;27.43;;;;;;;;;;5076893;28;20975;-83
2023/01/20 01:57:39;;;;;;;50.40;27.33;;;;;;;;;;5075867;28;20487;-83
2023/01/20 02:00:06;;;;;;;57.77;28.50;;;;;;;;;;5077478;28;21225;-84
2023/01/20 02:02:34;;;;;;;50.90;26.93;;;;;;;;;;5078500;28;20479;-83
2023/01/20 02:05:01;;;;;;;46.07;26.57;;;;;;;;;;5075959;28;20503;-83
2023/01/20 02:07:28;;;;;;;54.60;27.90;;;;;;;;;;5075188;28;20463;-83
2023/01/20 02:09:54;;;;;;;53.93;28.60;;;;;;;;;;5074460;28;20483;-84
2023/01/20 02:12:22;;;;;;;61.43;30.43;;;;;;;;;;5076766;28;20850;-84
2023/01/20 02:14:49;;;;;;;60.73;28.07;;;;;;;;;;5077186;28;20469;-83
2023/01/20 02:17:20;;;;;;;55.63;27.17;;;;;;;;;;5074467;28;20455;-83
2023/01/20 02:20:00;;;;;;;51.93;26.20;;;;;;;;;;5074168;28;21025;-83
2023/01/20 02:22:32;;;;;;;64.73;28.87;;;;;;;;;;5076211;28;20478;-83
2023/01/20 02:25:15;;;;;;;55.27;28.63;;;;;;;;;;5075661;28;20474;-85
2023/01/20 02:27:54;;;;;;;61.00;29.47;;;;;;;;;;5077081;28;20448;-83
2023/01/20 02:30:37;;;;;;;51.87;26.60;;;;;;;;;;5076264;28;20483;-83
2023/01/20 02:33:06;;;;;;;58.17;27.90;;;;;;;;;;5075851;28;20470;-83
2023/01/20 02:35:35;;;;;;;54.67;28.93;;;;;;;;;;5074846;28;20913;-83
2023/01/20 02:38:10;;;;;;;54.83;28.70;;;;;;;;;;5076254;28;21015;-83
2023/01/20 02:40:40;;;;;;;58.77;32.07;;;;;;;;;;5076843;28;21053;-84
2023/01/20 02:43:09;;;;;;;55.37;29.00;;;;;;;;;;5074710;28;21112;-83
2023/01/20 02:45:37;;;;;;;60.33;31.37;;;;;;;;;;5075720;28;20469;-83
2023/01/20 02:48:08;;;;;;;68.97;28.40;;;;;;;;;;5076591;28;20451;-86
2023/01/20 02:50:38;;;;;;;59.33;30.20;;;;;;;;;;5076152;28;20538;-84
2023/01/20 02:53:05;;;;;;;58.80;27.53;;;;;;;;;;5076672;28;20875;-83
2023/01/20 02:55:34;;;;;;;59.83;29.00;;;;;;;;;;5073127;28;20479;-83
2023/01/20 02:58:03;;;;;;;63.63;27.50;;;;;;;;;;5076006;28;20487;-83
2023/01/20 03:00:34;;;;;;;61.70;29.50;;;;;;;;;;5074190;28;20474;-83
2023/01/20 03:03:02;;;;;;;59.20;28.30;;;;;;;;;;5077093;28;20459;-83
2023/01/20 03:05:31;;;;;;;64.77;31.80;;;;;;;;;;5076645;28;20480;-83
2023/01/20 03:07:58;;;;;;;66.87;30.27;;;;;;;;;;5077115;28;20465;-83
2023/01/20 03:10:26;;;;;;;53.87;25.83;;;;;;;;;;5077398;28;20805;-84
2023/01/20 03:12:54;;;;;;;54.00;26.13;;;;;;;;;;5075830;28;21185;-84
2023/01/20 03:15:24;;;;;;;67.87;28.07;;;;;;;;;;5073070;28;20482;-83
2023/01/20 03:17:50;;;;;;;57.67;24.70;;;;;;;;;;5075000;28;20478;-83
2023/01/20 03:20:17;;;;;;;59.90;26.80;;;;;;;;;;5074667;28;20467;-83
2023/01/20 03:22:45;;;;;;;58.73;26.00;;;;;;;;;;5072957;28;20848;-83
2023/01/20 03:25:13;;;;;;;51.43;25.20;;;;;;;;;;5077743;28;21003;-84
2023/01/20 03:27:40;;;;;;;59.27;26.53;;;;;;;;;;5073547;28;20478;-83
2023/01/20 03:30:11;;;;;;;63.43;28.70;;;;;;;;;;5075140;28;20476;-83
2023/01/20 03:32:38;;;;;;;65.27;28.23;;;;;;;;;;5075947;28;20462;-83
2023/01/20 03:35:06;;;;;;;47.00;23.50;;;;;;;;;;5074945;28;20483;-84
2023/01/20 03:37:32;;;;;;;50.43;22.93;;;;;;;;;;5075100;28;20467;-84
2023/01/20 03:40:00;;;;;;;58.17;25.93;;;;;;;;;;5074496;28;20930;-84
2023/01/20 03:42:29;;;;;;;51.00;22.10;;;;;;;;;;5072568;28;20483;-83
2023/01/20 03:45:00;;;;;;;43.43;23.00;;;;;;;;;;5075789;28;20471;-83
2023/01/20 03:47:33;;;;;;;51.97;25.40;;;;;;;;;;5075942;28;20453;-84
2023/01/20 03:50:05;;;;;;;53.77;23.90;;;;;;;;;;5071162;28;20507;-85
2023/01/20 03:52:33;;;;;;;52.00;25.87;;;;;;;;;;5073176;28;20484;-83
2023/01/20 03:55:03;;;;;;;41.10;22.70;;;;;;;;;;5074539;28;20482;-83
2023/01/20 03:57:34;;;;;;;50.80;25.30;;;;;;;;;;5074763;28;20442;-83
2023/01/20 04:00:01;;;;;;;51.90;24.47;;;;;;;;;;5072731;28;20471;-83
2023/01/20 04:02:28;;;;;;;53.13;23.00;;;;;;;;;;5075202;28;20477;-85
2023/01/20 04:04:55;;;;;;;45.07;23.20;;;;;;;;;;5072847;28;20474;-83
2023/01/20 04:07:23;;;;;;;46.93;22.33;;;;;;;;;;5075262;28;20494;-83
2023/01/20 04:09:51;;;;;;;43.63;24.00;;;;;;;;;;5070909;28;20474;-83
2023/01/20 04:12:19;;;;;;;48.77;23.90;;;;;;;;;;5073954;28;20490;-84
2023/01/20 04:14:45;;;;;;;48.03;21.77;;;;;;;;;;5074024;28;20483;-84
2023/01/20 04:17:12;;;;;;;34.80;20.10;;;;;;;;;;5075795;28;20454;-84
2023/01/20 04:19:40;;;;;;;36.27;19.30;;;;;;;;;;5056679;28;20494;-83
2023/01/20 04:22:08;;;;;;;38.93;18.57;;;;;;;;;;5076031;28;20463;-89
2023/01/20 04:24:37;;;;;;;36.10;16.80;;;;;;;;;;5073537;28;20479;-85
2023/01/20 04:27:04;;;;;;;38.20;19.57;;;;;;;;;;5075567;28;20536;-84
2023/01/20 04:29:32;;;;;;;37.23;18.00;;;;;;;;;;5073529;28;20470;-84
2023/01/20 04:31:59;;;;;;;34.93;19.20;;;;;;;;;;5074714;28;20489;-83
2023/01/20 04:34:25;;;;;;;36.60;18.53;;;;;;;;;;5072016;28;20471;-83
2023/01/20 04:36:51;;;;;;;39.67;17.77;;;;;;;;;;5072646;28;20533;-83
2023/01/20 04:39:18;;;;;;;34.70;18.23;;;;;;;;;;5072537;28;20464;-84
2023/01/20 04:41:44;;;;;;;37.60;20.27;;;;;;;;;;5072872;28;21464;-84
2023/01/20 04:44:11;;;;;;;36.77;20.17;;;;;;;;;;5073247;28;20474;-84
2023/01/20 04:46:38;;;;;;;38.73;18.07;;;;;;;;;;5073884;28;20912;-83
2023/01/20 04:49:05;;;;;;;40.00;18.97;;;;;;;;;;5073777;28;20503;-83
2023/01/20 04:51:32;;;;;;;45.33;23.57;;;;;;;;;;5073136;28;20475;-84
2023/01/20 04:53:59;;;;;;;47.80;20.83;;;;;;;;;;5072372;28;20479;-83
2023/01/20 04:56:25;;;;;;;37.93;20.70;;;;;;;;;;5073722;28;20835;-84
2023/01/20 04:58:52;;;;;;;46.23;21.93;;;;;;;;;;5070936;28;20475;-83
2023/01/20 05:01:18;;;;;;;47.20;21.03;;;;;;;;;;5072722;28;20467;-84
2023/01/20 05:03:46;;;;;;;37.27;20.67;;;;;;;;;;5073386;28;20481;-84
2023/01/20 05:06:12;;;;;;;42.57;21.93;;;;;;;;;;5072231;28;20446;-84
2023/01/20 05:08:39;;;;;;;41.13;22.13;;;;;;;;;;5073906;28;20986;-83
2023/01/20 05:11:06;;;;;;;50.03;23.80;;;;;;;;;;5071407;28;20485;-84
2023/01/20 05:13:34;;;;;;;41.73;22.80;;;;;;;;;;5071389;28;21662;-83
2023/01/20 05:16:00;;;;;;;49.93;22.13;;;;;;;;;;5071910;28;20485;-83
2023/01/20 05:18:27;;;;;;;41.93;21.20;;;;;;;;;;5073841;28;20491;-84
2023/01/20 05:20:54;;;;;;;40.00;22.50;;;;;;;;;;5074248;28;20458;-83
2023/01/20 05:23:21;;;;;;;48.80;21.70;;;;;;;;;;5075346;28;20459;-84
2023/01/20 05:25:50;;;;;;;43.73;23.03;;;;;;;;;;5076947;28;20471;-83
2023/01/20 05:28:16;;;;;;;40.57;20.90;;;;;;;;;;5076132;28;20462;-84
2023/01/20 05:30:43;;;;;;;50.17;24.47;;;;;;;;;;5077535;28;20463;-83
2023/01/20 05:33:09;;;;;;;44.10;22.40;;;;;;;;;;5073546;28;21279;-83
2023/01/20 05:35:37;;;;;;;47.67;23.30;;;;;;;;;;5075747;28;20479;-84
2023/01/20 05:38:05;;;;;;;43.20;22.10;;;;;;;;;;5075502;28;20550;-83
2023/01/20 05:40:31;;;;;;;47.40;22.20;;;;;;;;;;5077407;28;20475;-84
2023/01/20 05:42:58;;;;;;;42.67;22.67;;;;;;;;;;5072586;28;20486;-84
2023/01/20 05:45:25;;;;;;;45.70;21.13;;;;;;;;;;5075680;28;20481;-83
2023/01/20 05:47:54;;;;;;;42.80;24.37;;;;;;;;;;5077869;28;20474;-83
2023/01/20 05:50:20;;;;;;;41.10;21.30;;;;;;;;;;5058514;28;20483;-84
2023/01/20 05:52:46;;;;;;;40.73;22.77;;;;;;;;;;5076339;28;20489;-83
2023/01/20 05:55:14;;;;;;;50.80;25.20;;;;;;;;;;5077223;28;20474;-83
2023/01/20 05:57:41;;;;;;;41.70;21.50;;;;;;;;;;5078097;28;20465;-83
2023/01/20 06:00:08;;;;;;;49.23;22.37;;;;;;;;;;5075585;28;20483;-85
2023/01/20 06:02:35;;;;;;;42.40;22.33;;;;;;;;;;5073742;28;20501;-85
2023/01/20 06:05:01;;;;;;;43.43;20.77;;;;;;;;;;5075089;28;20474;-85
2023/01/20 06:07:28;;;;;;;45.13;21.67;;;;;;;;;;5075489;28;20896;-85
2023/01/20 06:09:55;;;;;;;45.07;23.60;;;;;;;;;;5074629;28;20494;-84
2023/01/20 06:12:23;;;;;;;45.50;21.63;;;;;;;;;;5075119;28;21023;-87
2023/01/20 06:14:49;;;;;;;46.37;24.30;;;;;;;;;;5074048;28;20487;-85
2023/01/20 06:17:15;;;;;;;48.23;23.13;;;;;;;;;;5073961;28;20459;-85
2023/01/20 06:19:42;;;;;;;48.77;22.37;;;;;;;;;;5075106;28;20474;-86
2023/01/20 06:22:12;;;;;;;51.47;22.83;;;;;;;;;;5073799;28;20470;-86
2023/01/20 06:24:39;;;;;;;42.73;22.87;;;;;;;;;;5072554;28;20481;-86
2023/01/20 06:27:05;;;;;;;41.10;21.40;;;;;;;;;;5075647;28;20458;-86
2023/01/20 06:29:33;;;;;;;43.03;21.10;;;;;;;;;;5073193;28;20996;-86
2023/01/20 06:31:59;;;;;;;38.00;20.07;;;;;;;;;;5074106;28;20489;-86
2023/01/20 06:34:26;;;;;;;47.70;22.00;;;;;;;;;;5073320;28;20491;-86
2023/01/20 06:36:52;;;;;;;43.67;21.57;;;;;;;;;;5074740;28;20451;-87
2023/01/20 06:39:19;;;;;;;38.70;21.10;;;;;;;;;;5072173;28;20856;-85
2023/01/20 06:41:45;;;;;;;47.57;22.40;;;;;;;;;;5070900;28;20490;-86
2023/01/20 06:44:12;;;;;;;45.53;21.23;;;;;;;;;;5069869;28;20948;-85
2023/01/20 06:46:39;;;;;;;45.20;23.10;;;;;;;;;;5070455;28;20466;-86
2023/01/20 06:49:06;;;;;;;43.80;20.80;;;;;;;;;;5076407;28;20459;-85
2023/01/20 06:51:32;;;;;;;40.77;22.83;;;;;;;;;;5074308;28;20479;-85
2023/01/20 06:53:59;;;;;;;44.67;21.87;;;;;;;;;;5075106;28;20475;-85
2023/01/20 06:56:25;;;;;;;45.53;23.03;;;;;;;;;;5075616;28;20549;-85
2023/01/20 06:58:52;;;;;;;40.80;24.30;;;;;;;;;;5075889;28;20482;-86
2023/01/20 07:01:20;;;;;;;48.77;24.90;;;;;;;;;;5075603;28;20479;-85
2023/01/20 07:03:48;;;;;;;45.30;23.00;;;;;;;;;;5072745;28;20483;-86
2023/01/20 07:06:15;;;;;;;39.70;22.20;;;;;;;;;;5076590;28;20461;-85
2023/01/20 07:08:42;;;;;;;44.77;22.57;;;;;;;;;;5075896;28;20566;-84
2023/01/20 07:11:08;;;;;;;42.07;22.00;;;;;;;;;;5074778;28;20484;-84
2023/01/20 07:13:35;;;;;;;39.97;23.73;;;;;;;;;;5072818;28;20455;-85
2023/01/20 07:16:01;;;;;;;41.33;23.80;;;;;;;;;;5071015;28;20458;-85
2023/01/20 07:18:28;;;;;;;47.23;23.53;;;;;;;;;;5069287;28;20443;-85
2023/01/20 07:20:56;;;;;;;42.83;22.17;;;;;;;;;;5073853;28;20487;-87
2023/01/20 07:23:22;;;;;;;40.03;22.00;;;;;;;;;;5069602;28;20944;-85
2023/01/20 07:25:56;;;;;;;42.17;21.73;;;;;;;;;;5075009;28;20455;-84
2023/01/20 07:28:23;;;;;;;51.70;24.00;;;;;;;;;;5057759;28;20837;-84
2023/01/20 07:30:49;;;;;;;43.57;23.23;;;;;;;;;;5059682;28;20475;-84
2023/01/20 07:33:16;;;;;;;47.70;21.93;;;;;;;;;;5073294;28;20456;-84
2023/01/20 07:35:42;;;;;;;46.47;22.83;;;;;;;;;;5076058;28;20478;-84
2023/01/20 07:38:10;;;;;;;43.13;22.03;;;;;;;;;;5073896;28;20459;-84
2023/01/20 07:40:36;;;;;;;44.73;22.73;;;;;;;;;;5073388;28;20483;-83
2023/01/20 07:43:03;;;;;;;42.53;22.10;;;;;;;;;;5072048;28;20469;-83
2023/01/20 07:45:29;;;;;;;50.67;23.03;;;;;;;;;;5075621;28;20470;-83
2023/01/20 07:47:56;;;;;;;42.20;22.20;;;;;;;;;;5075527;28;20458;-84
2023/01/20 07:50:22;;;;;;;52.50;24.13;;;;;;;;;;5074598;28;20468;-83
2023/01/20 07:52:48;;;;;;;49.97;22.70;;;;;;;;;;5073695;28;20475;-83
2023/01/20 07:55:16;;;;;;;51.10;25.10;;;;;;;;;;5071158;28;20479;-83
2023/01/20 07:57:43;;;;;;;49.43;25.53;;;;;;;;;;5071260;28;20464;-83
2023/01/20 08:00:10;;;;;;;62.40;25.80;;;;;;;;;;5072695;28;20472;-83
2023/01/20 08:02:36;;;;;;;49.73;24.10;;;;;;;;;;5072251;28;20487;-83
2023/01/20 08:05:03;;;;;;;46.73;24.13;;;;;;;;;;5073683;28;20478;-83
2023/01/20 08:07:29;;;;;;;47.40;23.73;;;;;;;;;;5073519;28;20455;-83
2023/01/20 08:09:56;;;;;;;41.13;22.67;;;;;;;;;;5073685;28;20494;-84
2023/01/20 08:12:23;;;;;;;37.80;21.70;;;;;;;;;;5074459;28;20475;-82
2023/01/20 08:14:50;;;;;;;46.50;22.47;;;;;;;;;;5069659;28;20466;-83
2023/01/20 08:17:16;;;;;;;43.20;20.87;;;;;;;;;;5071072;28;20459;-83
2023/01/20 08:19:43;;;;;;;44.53;21.20;;;;;;;;;;5073579;28;21052;-83
2023/01/20 08:22:09;;;;;;;40.70;23.30;;;;;;;;;;5074256;28;20472;-83
2023/01/20 08:24:35;;;;;;;45.90;21.93;;;;;;;;;;5072707;28;20463;-82
2023/01/20 08:27:02;;;;;;;54.87;23.47;;;;;;;;;;5073260;28;20467;-84
2023/01/20 08:29:32;;;;;;;45.40;21.77;;;;;;;;;;5070247;28;20795;-83
2023/01/20 08:31:58;;;;;;;47.37;21.80;;;;;;;;;;5072022;28;20514;-85
2023/01/20 08:34:25;;;;;;;48.07;23.43;;;;;;;;;;5074176;28;20462;-83
2023/01/20 08:36:52;;;;;;;59.20;23.37;;;;;;;;;;5072647;28;21199;-84
2023/01/20 08:39:19;;;;;;;41.90;22.50;;;;;;;;;;5074072;28;20459;-84
2023/01/20 08:41:46;;;;;;;51.33;24.80;;;;;;;;;;5073621;28;20490;-84
2023/01/20 08:44:13;;;;;;;53.63;24.37;;;;;;;;;;5072885;28;20853;-84
2023/01/20 08:46:41;;;;;;;48.20;23.60;;;;;;;;;;5073130;28;20471;-85
2023/01/20 08:49:08;;;;;;;46.83;23.57;;;;;;;;;;5071844;28;20870;-85
2023/01/20 08:51:35;;;;;;;47.10;22.97;;;;;;;;;;5073603;28;20475;-84
2023/01/20 08:54:01;;;;;;;40.27;20.13;;;;;;;;;;5074570;28;20456;-84
2023/01/20 08:56:28;;;;;;;43.03;23.10;;;;;;;;;;5072224;28;20480;-84
2023/01/20 08:58:55;;;;;;;43.43;22.57;;;;;;;;;;5073714;28;20464;-84
2023/01/20 09:01:24;;;;;;;50.63;24.40;;;;;;;;;;5070507;28;20493;-84
2023/01/20 09:03:51;;;;;;;43.00;20.37;;;;;;;;;;5074305;28;20894;-83
2023/01/20 09:06:18;;;;;;;40.60;22.17;;;;;;;;;;5071121;28;20487;-86
2023/01/20 09:08:45;;;;;;;46.87;21.97;;;;;;;;;;5072801;28;20455;-84
2023/01/20 09:11:13;;;;;;;43.03;21.33;;;;;;;;;;5072621;28;21178;-84
2023/01/20 09:13:39;;;;;;;45.17;22.33;;;;;;;;;;5073034;28;20468;-84
2023/01/20 09:16:06;;;;;;;39.40;19.57;;;;;;;;;;5072222;28;20480;-84
2023/01/20 09:18:34;;;;;;;39.50;20.33;;;;;;;;;;5073111;28;20452;-84
2023/01/20 09:21:05;;;;;;;37.53;19.93;;;;;;;;;;5072059;28;20490;-84
2023/01/20 09:23:32;;;;;;;42.07;20.33;;;;;;;;;;5071779;28;20842;-84
2023/01/20 09:25:59;;;;;;;47.27;20.80;;;;;;;;;;5071913;28;20476;-85
2023/01/20 09:28:25;;;;;;;36.60;18.93;;;;;;;;;;5072288;28;20470;-84
2023/01/20 09:30:56;;;;;;;37.03;17.90;;;;;;;;;;5072199;28;20471;-84
2023/01/20 09:33:23;;;;;;;38.30;18.90;;;;;;;;;;5072747;28;20466;-84
2023/01/20 09:35:53;;;;;;;37.43;19.80;;;;;;;;;;5072967;28;20482;-84
2023/01/20 09:43:57;;;;;;;37.83;15.93;;;;;;;;;;5071483;28;20447;-84
2023/01/20 09:46:34;;;;;;;31.30;15.23;;;;;;;;;;5070276;28;20478;-84
2023/01/20 09:54:43;;;;;;;39.30;18.33;;;;;;;;;;5069162;28;20487;-83
2023/01/20 09:57:10;;;;;;;35.60;16.97;;;;;;;;;;5072453;28;20834;-85
2023/01/20 09:59:39;;;;;;;31.87;16.10;;;;;;;;;;5070369;28;20467;-84
2023/01/20 10:02:07;;;;;;;34.90;17.37;;;;;;;;;;5072696;28;20471;-84
2023/01/20 10:04:36;;;;;;;33.70;17.00;;;;;;;;;;5072422;28;20467;-85
2023/01/20 10:07:07;;;;;;;36.10;18.00;;;;;;;;;;5073377;28;20477;-83
2023/01/20 10:09:35;;;;;;;41.77;17.73;;;;;;;;;;5075077;28;20481;-83
2023/01/20 10:12:09;;;;;;;33.87;17.97;;;;;;;;;;5076419;28;20549;-83
2023/01/20 10:14:39;;;;;;;33.10;16.43;;;;;;;;;;5077080;28;21300;-84
2023/01/20 10:17:08;;;;;;;33.87;17.93;;;;;;;;;;5074490;28;20451;-85
2023/01/20 10:19:36;;;;;;;36.13;17.80;;;;;;;;;;5074376;28;20459;-84
2023/01/20 10:22:06;;;;;;;40.27;20.07;;;;;;;;;;5072850;28;20478;-84
2023/01/20 10:24:35;;;;;;;34.10;16.50;;;;;;;;;;5074806;28;20456;-85
2023/01/20 10:27:02;;;;;;;32.83;17.70;;;;;;;;;;5075811;28;20463;-87
2023/01/20 10:29:34;;;;;;;38.80;16.77;;;;;;;;;;5072345;28;20447;-83
2023/01/20 10:32:01;;;;;;;32.73;18.23;;;;;;;;;;5073912;28;20474;-83
2023/01/20 10:34:31;;;;;;;37.00;20.00;;;;;;;;;;5074753;28;20448;-82
2023/01/20 10:37:02;;;;;;;31.03;17.90;;;;;;;;;;5072548;28;20454;-84
2023/01/20 10:39:33;;;;;;;34.73;17.57;;;;;;;;;;5073273;28;20482;-84
2023/01/20 10:42:02;;;;;;;31.10;16.90;;;;;;;;;;5074474;28;20482;-85
2023/01/20 10:44:28;;;;;;;34.83;18.73;;;;;;;;;;5074016;28;20451;-86
2023/01/20 10:47:04;;;;;;;34.53;18.07;;;;;;;;;;5075595;28;20463;-84
2023/01/20 10:49:40;;;;;;;31.20;18.00;;;;;;;;;;5074345;28;20465;-86
2023/01/20 10:52:14;;;;;;;28.33;15.60;;;;;;;;;;5075590;28;20467;-87
2023/01/20 10:54:44;;;;;;;31.33;16.43;;;;;;;;;;5074449;28;20468;-84
2023/01/20 10:57:12;;;;;;;32.50;18.00;;;;;;;;;;5077919;28;20447;-84
2023/01/20 10:59:41;;;;;;;37.67;17.77;;;;;;;;;;5075870;28;20455;-87
2023/01/20 11:02:14;;;;;;;34.47;17.77;;;;;;;;;;5076499;28;20482;-86
2023/01/20 11:04:40;;;;;;;25.83;16.50;;;;;;;;;;5072925;28;20459;-84
2023/01/20 11:07:11;;;;;;;30.77;15.80;;;;;;;;;;5077064;28;20462;-86
2023/01/20 11:09:38;;;;;;;37.33;19.53;;;;;;;;;;5076270;28;20456;-84
2023/01/20 11:12:09;;;;;;;30.60;16.43;;;;;;;;;;5074674;28;20483;-84
2023/01/20 11:14:36;;;;;;;22.10;13.80;;;;;;;;;;5073875;28;20468;-83
2023/01/20 11:17:04;;;;;;;34.87;15.87;;;;;;;;;;5074651;28;20466;-83
2023/01/20 11:19:45;;;;;;;28.73;15.13;;;;;;;;;;5075574;28;20464;-84
2023/01/20 11:22:13;;;;;;;32.43;15.97;;;;;;;;;;5070753;28;20512;-83
2023/01/20 11:24:42;;;;;;;31.37;15.20;;;;;;;;;;5075205;28;20469;-84
2023/01/20 11:27:12;;;;;;;23.57;14.10;;;;;;;;;;5074896;28;20509;-83
2023/01/20 11:29:41;;;;;;;31.67;16.93;;;;;;;;;;5073241;28;20837;-83
2023/01/20 11:32:23;;;;;;;26.10;14.87;;;;;;;;;;5072465;28;20480;-86
2023/01/20 11:34:51;;;;;;;28.73;15.90;;;;;;;;;;5073466;28;20459;-84
2023/01/20 11:37:19;;;;;;;23.53;14.20;;;;;;;;;;5071354;28;20448;-83
2023/01/20 11:39:56;;;;;;;35.30;16.60;;;;;;;;;;5072871;28;20527;-84
2023/01/20 11:42:23;;;;;;;25.80;15.03;;;;;;;;;;5076524;28;20487;-83
2023/01/20 11:44:51;;;;;;;26.37;14.17;;;;;;;;;;5073869;28;20467;-83
2023/01/20 11:47:25;;;;;;;25.83;15.37;;;;;;;;;;5073973;28;20976;-83
2023/01/20 11:50:21;;;;;;;35.30;14.77;;;;;;;;;;5072872;28;20498;-83
2023/01/20 11:52:49;;;;;;;34.10;16.73;;;;;;;;;;4991738;28;20479;-83
2023/01/20 11:55:16;;;;;;;27.10;15.07;;;;;;;;;;5053699;28;20554;-83
2023/01/20 11:57:44;;;;;;;32.03;15.90;;;;;;;;;;5072035;28;20497;-84
2023/01/20 12:00:26;;;;;;;25.90;14.67;;;;;;;;;;5073106;28;20551;-83
2023/01/20 12:02:57;;;;;;;23.53;14.47;;;;;;;;;;5075928;28;20935;-83
2023/01/20 12:05:29;;;;;;;21.17;13.47;;;;;;;;;;5072952;28;20474;-83
2023/01/20 12:07:56;;;;;;;30.13;15.47;;;;;;;;;;5071352;28;20447;-84
2023/01/20 12:10:25;;;;;;;25.07;14.97;;;;;;;;;;5072659;28;20485;-83
2023/01/20 12:12:53;;;;;;;26.43;16.10;;;;;;;;;;5072292;28;20844;-85
2023/01/20 12:15:22;;;;;;;26.73;15.40;;;;;;;;;;5072712;28;20485;-84
2023/01/20 12:17:52;;;;;;;29.27;16.80;;;;;;;;;;5071548;28;20474;-85
2023/01/20 12:20:24;;;;;;;25.37;14.70;;;;;;;;;;5071011;28;21380;-84
2023/01/20 12:22:58;;;;;;;29.07;17.20;;;;;;;;;;5069660;28;20491;-83
2023/01/20 12:25:27;;;;;;;30.27;15.53;;;;;;;;;;5071210;28;20469;-83
2023/01/20 12:27:56;;;;;;;27.87;15.97;;;;;;;;;;5071348;28;20463;-83
2023/01/20 12:30:34;;;;;;;30.63;17.50;;;;;;;;;;5070326;28;20555;-83
2023/01/20 12:33:00;;;;;;;27.23;16.87;;;;;;;;;;5073605;28;20971;-84
2023/01/20 12:35:30;;;;;;;26.27;15.97;;;;;;;;;;5072262;28;20480;-86
2023/01/20 12:37:57;;;;;;;25.33;16.17;;;;;;;;;;5072918;28;20770;-88
2023/01/20 12:40:32;;;;;;;24.63;14.83;;;;;;;;;;5073541;28;20961;-84
2023/01/20 12:43:05;;;;;;;27.37;16.03;;;;;;;;;;5072539;28;20482;-85
2023/01/20 12:45:45;;;;;;;27.03;15.40;;;;;;;;;;5072776;28;20474;-87
2023/01/20 12:48:20;;;;;;;27.23;16.00;;;;;;;;;;5073042;28;20473;-85
2023/01/20 12:50:56;;;;;;;31.30;17.70;;;;;;;;;;5069658;28;20566;-87
2023/01/20 12:53:29;;;;;;;31.30;15.83;;;;;;;;;;5073022;28;20462;-85
2023/01/20 12:56:01;;;;;;;24.73;14.07;;;;;;;;;;5071658;28;21031;-86
2023/01/20 12:58:38;;;;;;;30.73;17.43;;;;;;;;;;5073169;28;20452;-85
2023/01/20 13:01:14;;;;;;;27.63;15.60;;;;;;;;;;5071699;28;20559;-84
2023/01/20 13:03:55;;;;;;;27.73;15.83;;;;;;;;;;5071364;28;20454;-85
2023/01/20 13:06:31;;;;;;;25.57;15.03;;;;;;;;;;5072516;28;20479;-84
2023/01/20 13:09:05;;;;;;;29.93;17.37;;;;;;;;;;5073795;28;20459;-85
2023/01/20 13:11:41;;;;;;;27.67;15.77;;;;;;;;;;5070892;28;20482;-88
2023/01/20 13:14:11;;;;;;;34.10;18.60;;;;;;;;;;5072150;28;20465;-85
2023/01/20 13:16:43;;;;;;;28.47;15.70;;;;;;;;;;5070895;28;21031;-84
2023/01/20 13:19:13;;;;;;;33.47;16.27;;;;;;;;;;5072838;28;20459;-85
2023/01/20 13:21:41;;;;;;;30.77;18.00;;;;;;;;;;5070722;28;20474;-85
2023/01/20 13:24:14;;;;;;;29.40;16.30;;;;;;;;;;5074310;28;20550;-85
2023/01/20 13:26:42;;;;;;;25.60;16.07;;;;;;;;;;5071148;28;20479;-85
2023/01/20 13:29:19;;;;;;;33.63;19.30;;;;;;;;;;5072914;28;20487;-84
2023/01/20 13:31:46;;;;;;;26.80;17.13;;;;;;;;;;5070296;28;20475;-85
2023/01/20 13:34:32;;;;;;;31.50;18.70;;;;;;;;;;5070767;28;20975;-85
2023/01/20 13:37:17;;;;;;;27.33;16.70;;;;;;;;;;5069643;28;20476;-84
2023/01/20 13:39:46;;;;;;;29.90;18.00;;;;;;;;;;5071368;28;20477;-88
2023/01/20 13:42:30;;;;;;;33.40;18.27;;;;;;;;;;5076577;28;20493;-84
2023/01/20 13:45:17;;;;;;;35.93;19.73;;;;;;;;;;5074640;28;20475;-85
2023/01/20 13:47:50;;;;;;;39.67;20.30;;;;;;;;;;5073649;28;20944;-84
2023/01/20 13:50:21;;;;;;;30.27;17.97;;;;;;;;;;5074372;28;20471;-85
2023/01/20 13:53:12;;;;;;;36.97;20.27;;;;;;;;;;5073998;28;20941;-83
2023/01/20 13:55:52;;;;;;;40.20;24.13;;;;;;;;;;5072043;28;20462;-84
2023/01/20 13:58:21;;;;;;;37.37;20.30;;;;;;;;;;5077334;28;20840;-84
2023/01/20 14:00:49;;;;;;;38.90;19.60;;;;;;;;;;5074554;28;21240;-84
2023/01/20 14:03:20;;;;;;;35.17;21.90;;;;;;;;;;5073566;28;20470;-83
2023/01/20 14:05:48;;;;;;;40.33;19.10;;;;;;;;;;5075168;28;20837;-85
2023/01/20 14:08:15;;;;;;;36.33;20.43;;;;;;;;;;5076218;28;20454;-85
2023/01/20 14:10:41;;;;;;;38.47;20.57;;;;;;;;;;5073176;28;20479;-84
2023/01/20 14:13:11;;;;;;;30.20;18.23;;;;;;;;;;5071691;28;20462;-84
2023/01/20 14:15:39;;;;;;;40.90;20.87;;;;;;;;;;5074597;28;20509;-84
2023/01/20 14:18:13;;;;;;;35.47;18.53;;;;;;;;;;5075813;28;20455;-84
2023/01/20 14:20:40;;;;;;;37.70;19.80;;;;;;;;;;5074921;28;20480;-86
2023/01/20 14:23:26;;;;;;;35.30;19.60;;;;;;;;;;5072424;28;20478;-84
2023/01/20 14:25:59;;;;;;;33.77;20.50;;;;;;;;;;5076453;28;20467;-85
2023/01/20 14:28:26;;;;;;;36.83;21.00;;;;;;;;;;5074231;28;20469;-84
2023/01/20 14:31:11;;;;;;;34.00;20.10;;;;;;;;;;5074270;28;20541;-83
2023/01/20 14:33:43;;;;;;;37.53;21.50;;;;;;;;;;5074358;28;20466;-84
2023/01/20 14:36:12;;;;;;;33.37;20.10;;;;;;;;;;5075047;28;20517;-84